sensor_id;sensor_type;location;lat;lon;timestamp;P1;durP1;ratioP1;P2;durP2;ratioP2
53903;SDS011;39812;52.430;16.936;2023-04-25T00:01:05;4.78;;;1.60;;
53903;SDS011;39812;52.430;16.936;2023-04-25T00:03:31;2.90;;;1.55;;
53903;SDS011;39812;52.430;16.936;2023-04-25T00:06:00;1.88;;;1.45;;
53903;SDS011;39812;52.430;16.936;2023-04-25T00:08:29;2.15;;;1.23;;
53903;SDS011;39812;52.430;16.936;2023-04-25T00:10:56;3.58;;;1.52;;
53903;SDS011;39812;52.430;16.936;2023-04-25T00:13:22;1.77;;;1.15;;
53903;SDS011;39812;52.430;16.936;2023-04-25T00:15:48;1.23;;;0.95;;
53903;SDS011;39812;52.430;16.936;2023-04-25T00:18:14;3.00;;;0.95;;
53903;SDS011;39812;52.430;16.936;2023-04-25T00:20:40;1.88;;;1.13;;
53903;SDS011;39812;52.430;16.936;2023-04-25T00:23:09;2.10;;;1.40;;
53903;SDS011;39812;52.430;16.936;2023-04-25T00:25:35;1.73;;;1.27;;
53903;SDS011;39812;52.430;16.936;2023-04-25T00:28:01;2.20;;;1.30;;
53903;SDS011;39812;52.430;16.936;2023-04-25T00:30:26;1.38;;;1.10;;
53903;SDS011;39812;52.430;16.936;2023-04-25T00:32:52;1.45;;;1.08;;
53903;SDS011;39812;52.430;16.936;2023-04-25T00:35:18;2.20;;;1.30;;
53903;SDS011;39812;52.430;16.936;2023-04-25T00:37:43;1.65;;;1.20;;
53903;SDS011;39812;52.430;16.936;2023-04-25T00:40:10;2.50;;;1.20;;
53903;SDS011;39812;52.430;16.936;2023-04-25T00:42:37;2.15;;;1.70;;
53903;SDS011;39812;52.430;16.936;2023-04-25T00:45:04;2.60;;;1.80;;
53903;SDS011;39812;52.430;16.936;2023-04-25T00:47:32;3.17;;;1.40;;
53903;SDS011;39812;52.430;16.936;2023-04-25T00:49:58;4.25;;;1.40;;
53903;SDS011;39812;52.430;16.936;2023-04-25T00:52:24;1.63;;;1.50;;
53903;SDS011;39812;52.430;16.936;2023-04-25T00:54:50;2.38;;;1.38;;
53903;SDS011;39812;52.430;16.936;2023-04-25T00:57:16;1.70;;;1.33;;
53903;SDS011;39812;52.430;16.936;2023-04-25T00:59:42;2.38;;;1.45;;
53903;SDS011;39812;52.430;16.936;2023-04-25T01:02:10;2.47;;;1.65;;
53903;SDS011;39812;52.430;16.936;2023-04-25T01:04:36;2.85;;;1.55;;
53903;SDS011;39812;52.430;16.936;2023-04-25T01:07:02;2.53;;;1.50;;
53903;SDS011;39812;52.430;16.936;2023-04-25T01:09:27;2.08;;;1.50;;
53903;SDS011;39812;52.430;16.936;2023-04-25T01:11:56;2.33;;;1.52;;
53903;SDS011;39812;52.430;16.936;2023-04-25T01:14:22;1.60;;;1.30;;
53903;SDS011;39812;52.430;16.936;2023-04-25T01:16:48;2.00;;;1.40;;
53903;SDS011;39812;52.430;16.936;2023-04-25T01:19:14;2.70;;;1.45;;
53903;SDS011;39812;52.430;16.936;2023-04-25T01:21:41;2.63;;;1.70;;
53903;SDS011;39812;52.430;16.936;2023-04-25T01:24:07;1.52;;;1.20;;
53903;SDS011;39812;52.430;16.936;2023-04-25T01:26:33;2.20;;;1.30;;
53903;SDS011;39812;52.430;16.936;2023-04-25T01:28:59;2.42;;;1.50;;
53903;SDS011;39812;52.430;16.936;2023-04-25T01:31:26;2.22;;;1.55;;
53903;SDS011;39812;52.430;16.936;2023-04-25T01:33:53;2.42;;;1.80;;
53903;SDS011;39812;52.430;16.936;2023-04-25T01:36:18;1.75;;;1.48;;
53903;SDS011;39812;52.430;16.936;2023-04-25T01:38:45;2.38;;;1.60;;
53903;SDS011;39812;52.430;16.936;2023-04-25T01:41:12;4.57;;;1.75;;
53903;SDS011;39812;52.430;16.936;2023-04-25T01:43:38;2.90;;;1.70;;
53903;SDS011;39812;52.430;16.936;2023-04-25T01:46:04;2.47;;;1.75;;
53903;SDS011;39812;52.430;16.936;2023-04-25T01:48:30;1.75;;;1.48;;
53903;SDS011;39812;52.430;16.936;2023-04-25T01:50:55;2.38;;;1.92;;
53903;SDS011;39812;52.430;16.936;2023-04-25T01:53:21;2.30;;;1.63;;
53903;SDS011;39812;52.430;16.936;2023-04-25T01:55:47;2.85;;;1.88;;
53903;SDS011;39812;52.430;16.936;2023-04-25T01:58:13;2.55;;;1.92;;
53903;SDS011;39812;52.430;16.936;2023-04-25T02:00:39;4.30;;;2.38;;
53903;SDS011;39812;52.430;16.936;2023-04-25T02:03:05;2.78;;;2.20;;
53903;SDS011;39812;52.430;16.936;2023-04-25T02:05:35;3.60;;;2.13;;
53903;SDS011;39812;52.430;16.936;2023-04-25T02:08:02;3.10;;;2.15;;
53903;SDS011;39812;52.430;16.936;2023-04-25T02:10:28;3.63;;;2.22;;
53903;SDS011;39812;52.430;16.936;2023-04-25T02:12:54;3.22;;;2.30;;
53903;SDS011;39812;52.430;16.936;2023-04-25T02:15:19;3.83;;;2.40;;
53903;SDS011;39812;52.430;16.936;2023-04-25T02:17:45;4.95;;;2.60;;
53903;SDS011;39812;52.430;16.936;2023-04-25T02:20:12;5.88;;;2.67;;
53903;SDS011;39812;52.430;16.936;2023-04-25T02:22:37;4.28;;;2.33;;
53903;SDS011;39812;52.430;16.936;2023-04-25T02:25:03;3.33;;;2.58;;
53903;SDS011;39812;52.430;16.936;2023-04-25T02:27:29;4.63;;;2.53;;
53903;SDS011;39812;52.430;16.936;2023-04-25T02:29:55;5.47;;;3.13;;
53903;SDS011;39812;52.430;16.936;2023-04-25T02:32:21;6.32;;;3.75;;
53903;SDS011;39812;52.430;16.936;2023-04-25T02:34:47;4.10;;;2.58;;
53903;SDS011;39812;52.430;16.936;2023-04-25T02:37:13;3.80;;;2.53;;
53903;SDS011;39812;52.430;16.936;2023-04-25T02:39:39;6.00;;;2.50;;
53903;SDS011;39812;52.430;16.936;2023-04-25T02:42:04;5.53;;;2.58;;
53903;SDS011;39812;52.430;16.936;2023-04-25T02:44:30;4.28;;;2.50;;
53903;SDS011;39812;52.430;16.936;2023-04-25T02:46:56;5.05;;;2.47;;
53903;SDS011;39812;52.430;16.936;2023-04-25T02:49:21;3.92;;;2.53;;
53903;SDS011;39812;52.430;16.936;2023-04-25T02:51:47;5.00;;;2.50;;
53903;SDS011;39812;52.430;16.936;2023-04-25T02:54:12;4.43;;;2.90;;
53903;SDS011;39812;52.430;16.936;2023-04-25T02:56:38;6.55;;;2.53;;
53903;SDS011;39812;52.430;16.936;2023-04-25T02:59:04;3.40;;;2.60;;
53903;SDS011;39812;52.430;16.936;2023-04-25T03:01:29;5.85;;;2.53;;
53903;SDS011;39812;52.430;16.936;2023-04-25T03:03:55;4.15;;;3.03;;
53903;SDS011;39812;52.430;16.936;2023-04-25T03:06:20;5.85;;;3.10;;
53903;SDS011;39812;52.430;16.936;2023-04-25T03:08:46;3.95;;;2.88;;
53903;SDS011;39812;52.430;16.936;2023-04-25T03:11:11;3.15;;;2.33;;
53903;SDS011;39812;52.430;16.936;2023-04-25T03:13:37;7.47;;;2.78;;
53903;SDS011;39812;52.430;16.936;2023-04-25T03:16:03;9.88;;;3.28;;
53903;SDS011;39812;52.430;16.936;2023-04-25T03:18:29;4.30;;;2.92;;
53903;SDS011;39812;52.430;16.936;2023-04-25T03:20:55;5.30;;;3.08;;
53903;SDS011;39812;52.430;16.936;2023-04-25T03:23:21;6.78;;;3.35;;
53903;SDS011;39812;52.430;16.936;2023-04-25T03:25:46;4.93;;;3.10;;
53903;SDS011;39812;52.430;16.936;2023-04-25T03:28:12;7.88;;;3.20;;
53903;SDS011;39812;52.430;16.936;2023-04-25T03:30:38;4.65;;;3.33;;
53903;SDS011;39812;52.430;16.936;2023-04-25T03:33:03;5.38;;;3.40;;
53903;SDS011;39812;52.430;16.936;2023-04-25T03:35:29;5.82;;;3.10;;
53903;SDS011;39812;52.430;16.936;2023-04-25T03:37:55;5.35;;;3.20;;
53903;SDS011;39812;52.430;16.936;2023-04-25T03:40:20;5.50;;;3.58;;
53903;SDS011;39812;52.430;16.936;2023-04-25T03:42:47;9.38;;;3.78;;
53903;SDS011;39812;52.430;16.936;2023-04-25T03:45:12;6.82;;;3.35;;
53903;SDS011;39812;52.430;16.936;2023-04-25T03:47:38;4.75;;;3.65;;
53903;SDS011;39812;52.430;16.936;2023-04-25T03:50:03;7.43;;;3.85;;
53903;SDS011;39812;52.430;16.936;2023-04-25T03:52:29;6.72;;;3.97;;
53903;SDS011;39812;52.430;16.936;2023-04-25T03:54:55;6.35;;;3.88;;
53903;SDS011;39812;52.430;16.936;2023-04-25T03:57:21;5.40;;;3.63;;
53903;SDS011;39812;52.430;16.936;2023-04-25T03:59:46;6.80;;;4.22;;
53903;SDS011;39812;52.430;16.936;2023-04-25T04:02:12;8.20;;;4.32;;
53903;SDS011;39812;52.430;16.936;2023-04-25T04:04:37;8.02;;;3.90;;
53903;SDS011;39812;52.430;16.936;2023-04-25T04:07:03;7.65;;;4.00;;
53903;SDS011;39812;52.430;16.936;2023-04-25T04:09:29;8.65;;;4.43;;
53903;SDS011;39812;52.430;16.936;2023-04-25T04:11:54;5.57;;;3.83;;
53903;SDS011;39812;52.430;16.936;2023-04-25T04:14:20;6.85;;;4.13;;
53903;SDS011;39812;52.430;16.936;2023-04-25T04:16:46;7.30;;;3.75;;
53903;SDS011;39812;52.430;16.936;2023-04-25T04:19:11;8.00;;;4.80;;
53903;SDS011;39812;52.430;16.936;2023-04-25T04:21:37;6.75;;;3.92;;
53903;SDS011;39812;52.430;16.936;2023-04-25T04:24:03;6.45;;;4.50;;
53903;SDS011;39812;52.430;16.936;2023-04-25T04:26:28;6.45;;;4.47;;
53903;SDS011;39812;52.430;16.936;2023-04-25T04:28:54;8.60;;;4.65;;
53903;SDS011;39812;52.430;16.936;2023-04-25T04:31:20;7.97;;;4.78;;
53903;SDS011;39812;52.430;16.936;2023-04-25T04:33:46;12.50;;;4.95;;
53903;SDS011;39812;52.430;16.936;2023-04-25T04:36:12;8.70;;;4.57;;
53903;SDS011;39812;52.430;16.936;2023-04-25T04:38:38;5.82;;;3.58;;
53903;SDS011;39812;52.430;16.936;2023-04-25T04:41:05;6.75;;;4.75;;
53903;SDS011;39812;52.430;16.936;2023-04-25T04:43:31;8.30;;;4.85;;
53903;SDS011;39812;52.430;16.936;2023-04-25T04:45:58;9.88;;;4.25;;
53903;SDS011;39812;52.430;16.936;2023-04-25T04:48:25;6.15;;;4.28;;
53903;SDS011;39812;52.430;16.936;2023-04-25T04:50:51;13.85;;;5.30;;
53903;SDS011;39812;52.430;16.936;2023-04-25T04:53:16;8.07;;;4.07;;
53903;SDS011;39812;52.430;16.936;2023-04-25T04:55:42;5.85;;;4.10;;
53903;SDS011;39812;52.430;16.936;2023-04-25T04:58:08;7.25;;;4.28;;
53903;SDS011;39812;52.430;16.936;2023-04-25T05:00:34;8.80;;;4.20;;
53903;SDS011;39812;52.430;16.936;2023-04-25T05:02:59;6.88;;;4.03;;
53903;SDS011;39812;52.430;16.936;2023-04-25T05:05:25;6.07;;;3.60;;
53903;SDS011;39812;52.430;16.936;2023-04-25T05:07:51;6.53;;;4.43;;
53903;SDS011;39812;52.430;16.936;2023-04-25T05:10:17;6.55;;;3.60;;
53903;SDS011;39812;52.430;16.936;2023-04-25T05:12:43;6.43;;;4.22;;
53903;SDS011;39812;52.430;16.936;2023-04-25T05:15:09;7.90;;;4.20;;
53903;SDS011;39812;52.430;16.936;2023-04-25T05:17:36;5.65;;;3.85;;
53903;SDS011;39812;52.430;16.936;2023-04-25T05:20:01;5.43;;;3.70;;
53903;SDS011;39812;52.430;16.936;2023-04-25T05:22:27;6.72;;;3.53;;
53903;SDS011;39812;52.430;16.936;2023-04-25T05:24:53;10.38;;;4.57;;
53903;SDS011;39812;52.430;16.936;2023-04-25T05:27:19;8.40;;;4.85;;
53903;SDS011;39812;52.430;16.936;2023-04-25T05:29:45;6.47;;;3.75;;
53903;SDS011;39812;52.430;16.936;2023-04-25T05:32:11;6.70;;;4.15;;
53903;SDS011;39812;52.430;16.936;2023-04-25T05:34:36;10.10;;;4.00;;
53903;SDS011;39812;52.430;16.936;2023-04-25T05:37:02;6.15;;;3.70;;
53903;SDS011;39812;52.430;16.936;2023-04-25T05:39:28;5.72;;;4.05;;
53903;SDS011;39812;52.430;16.936;2023-04-25T05:41:53;7.68;;;4.10;;
53903;SDS011;39812;52.430;16.936;2023-04-25T05:44:19;5.80;;;3.53;;
53903;SDS011;39812;52.430;16.936;2023-04-25T05:46:45;5.43;;;3.20;;
53903;SDS011;39812;52.430;16.936;2023-04-25T05:49:11;8.93;;;4.15;;
53903;SDS011;39812;52.430;16.936;2023-04-25T05:51:36;5.82;;;3.60;;
53903;SDS011;39812;52.430;16.936;2023-04-25T05:54:02;5.82;;;3.75;;
53903;SDS011;39812;52.430;16.936;2023-04-25T05:56:27;4.15;;;3.30;;
53903;SDS011;39812;52.430;16.936;2023-04-25T05:58:53;8.27;;;3.90;;
53903;SDS011;39812;52.430;16.936;2023-04-25T06:01:19;8.38;;;3.40;;
53903;SDS011;39812;52.430;16.936;2023-04-25T06:03:44;5.60;;;3.58;;
53903;SDS011;39812;52.430;16.936;2023-04-25T06:06:11;6.82;;;3.78;;
53903;SDS011;39812;52.430;16.936;2023-04-25T06:08:37;6.88;;;3.40;;
53903;SDS011;39812;52.430;16.936;2023-04-25T06:11:03;7.22;;;3.97;;
53903;SDS011;39812;52.430;16.936;2023-04-25T06:13:29;7.18;;;3.22;;
53903;SDS011;39812;52.430;16.936;2023-04-25T06:15:55;5.55;;;3.38;;
53903;SDS011;39812;52.430;16.936;2023-04-25T06:18:20;6.55;;;3.80;;
53903;SDS011;39812;52.430;16.936;2023-04-25T06:20:46;4.63;;;3.30;;
53903;SDS011;39812;52.430;16.936;2023-04-25T06:23:12;6.00;;;3.13;;
53903;SDS011;39812;52.430;16.936;2023-04-25T06:25:37;5.03;;;3.08;;
53903;SDS011;39812;52.430;16.936;2023-04-25T06:28:03;5.78;;;3.38;;
53903;SDS011;39812;52.430;16.936;2023-04-25T06:30:29;8.43;;;3.63;;
53903;SDS011;39812;52.430;16.936;2023-04-25T06:32:54;5.05;;;3.28;;
53903;SDS011;39812;52.430;16.936;2023-04-25T06:35:20;7.68;;;3.17;;
53903;SDS011;39812;52.430;16.936;2023-04-25T06:37:46;8.15;;;3.30;;
53903;SDS011;39812;52.430;16.936;2023-04-25T06:40:11;7.75;;;3.35;;
53903;SDS011;39812;52.430;16.936;2023-04-25T06:42:37;5.68;;;3.33;;
53903;SDS011;39812;52.430;16.936;2023-04-25T06:45:03;7.55;;;3.42;;
53903;SDS011;39812;52.430;16.936;2023-04-25T06:47:29;6.72;;;2.97;;
53903;SDS011;39812;52.430;16.936;2023-04-25T06:49:55;8.68;;;3.63;;
53903;SDS011;39812;52.430;16.936;2023-04-25T06:52:21;5.85;;;2.92;;
53903;SDS011;39812;52.430;16.936;2023-04-25T06:54:48;4.93;;;3.42;;
53903;SDS011;39812;52.430;16.936;2023-04-25T06:57:13;5.32;;;3.30;;
53903;SDS011;39812;52.430;16.936;2023-04-25T06:59:39;6.88;;;2.83;;
53903;SDS011;39812;52.430;16.936;2023-04-25T07:02:05;9.00;;;3.72;;
53903;SDS011;39812;52.430;16.936;2023-04-25T07:04:31;11.43;;;3.70;;
53903;SDS011;39812;52.430;16.936;2023-04-25T07:06:56;6.32;;;3.72;;
53903;SDS011;39812;52.430;16.936;2023-04-25T07:09:22;5.93;;;4.20;;
53903;SDS011;39812;52.430;16.936;2023-04-25T07:11:48;5.88;;;3.08;;
53903;SDS011;39812;52.430;16.936;2023-04-25T07:14:13;7.60;;;3.40;;
53903;SDS011;39812;52.430;16.936;2023-04-25T07:16:40;6.68;;;3.75;;
53903;SDS011;39812;52.430;16.936;2023-04-25T07:19:05;7.80;;;3.72;;
53903;SDS011;39812;52.430;16.936;2023-04-25T07:21:31;7.03;;;3.42;;
53903;SDS011;39812;52.430;16.936;2023-04-25T07:23:57;4.85;;;2.83;;
53903;SDS011;39812;52.430;16.936;2023-04-25T07:26:23;5.18;;;3.20;;
53903;SDS011;39812;52.430;16.936;2023-04-25T07:28:49;5.75;;;3.17;;
53903;SDS011;39812;52.430;16.936;2023-04-25T07:31:16;6.38;;;3.72;;
53903;SDS011;39812;52.430;16.936;2023-04-25T07:33:43;5.15;;;3.10;;
53903;SDS011;39812;52.430;16.936;2023-04-25T07:36:12;6.65;;;3.30;;
53903;SDS011;39812;52.430;16.936;2023-04-25T07:38:38;7.85;;;3.42;;
53903;SDS011;39812;52.430;16.936;2023-04-25T07:41:04;7.35;;;3.22;;
53903;SDS011;39812;52.430;16.936;2023-04-25T07:43:30;6.35;;;3.65;;
53903;SDS011;39812;52.430;16.936;2023-04-25T07:45:56;6.32;;;3.25;;
53903;SDS011;39812;52.430;16.936;2023-04-25T07:48:22;7.50;;;3.60;;
53903;SDS011;39812;52.430;16.936;2023-04-25T07:50:48;6.63;;;3.40;;
53903;SDS011;39812;52.430;16.936;2023-04-25T07:53:14;4.93;;;3.22;;
53903;SDS011;39812;52.430;16.936;2023-04-25T07:55:40;5.65;;;3.13;;
53903;SDS011;39812;52.430;16.936;2023-04-25T07:58:06;4.63;;;2.90;;
53903;SDS011;39812;52.430;16.936;2023-04-25T08:00:32;6.20;;;3.28;;
53903;SDS011;39812;52.430;16.936;2023-04-25T08:02:58;7.35;;;3.17;;
53903;SDS011;39812;52.430;16.936;2023-04-25T08:05:23;7.75;;;3.28;;
53903;SDS011;39812;52.430;16.936;2023-04-25T08:07:49;5.35;;;3.15;;
53903;SDS011;39812;52.430;16.936;2023-04-25T08:10:15;7.25;;;3.22;;
53903;SDS011;39812;52.430;16.936;2023-04-25T08:12:40;6.35;;;3.58;;
53903;SDS011;39812;52.430;16.936;2023-04-25T08:15:06;6.53;;;3.38;;
53903;SDS011;39812;52.430;16.936;2023-04-25T08:17:32;8.00;;;3.35;;
53903;SDS011;39812;52.430;16.936;2023-04-25T08:19:58;7.65;;;2.95;;
53903;SDS011;39812;52.430;16.936;2023-04-25T08:22:23;4.57;;;3.15;;
53903;SDS011;39812;52.430;16.936;2023-04-25T08:24:49;6.82;;;3.28;;
53903;SDS011;39812;52.430;16.936;2023-04-25T08:27:15;5.18;;;2.70;;
53903;SDS011;39812;52.430;16.936;2023-04-25T08:29:41;8.15;;;3.60;;
53903;SDS011;39812;52.430;16.936;2023-04-25T08:32:07;5.32;;;2.85;;
53903;SDS011;39812;52.430;16.936;2023-04-25T08:34:33;7.40;;;2.92;;
53903;SDS011;39812;52.430;16.936;2023-04-25T08:36:58;7.63;;;2.90;;
53903;SDS011;39812;52.430;16.936;2023-04-25T08:39:24;4.82;;;2.75;;
53903;SDS011;39812;52.430;16.936;2023-04-25T08:41:49;6.30;;;3.72;;
53903;SDS011;39812;52.430;16.936;2023-04-25T08:44:15;6.45;;;3.45;;
53903;SDS011;39812;52.430;16.936;2023-04-25T08:46:41;7.28;;;3.20;;
53903;SDS011;39812;52.430;16.936;2023-04-25T08:49:11;4.93;;;2.83;;
53903;SDS011;39812;52.430;16.936;2023-04-25T08:51:40;4.85;;;3.22;;
53903;SDS011;39812;52.430;16.936;2023-04-25T08:54:12;5.97;;;3.30;;
53903;SDS011;39812;52.430;16.936;2023-04-25T08:56:39;8.32;;;3.70;;
53903;SDS011;39812;52.430;16.936;2023-04-25T08:59:08;9.27;;;3.92;;
53903;SDS011;39812;52.430;16.936;2023-04-25T09:01:35;7.32;;;3.60;;
53903;SDS011;39812;52.430;16.936;2023-04-25T09:04:01;9.32;;;3.50;;
53903;SDS011;39812;52.430;16.936;2023-04-25T09:06:28;5.95;;;3.47;;
53903;SDS011;39812;52.430;16.936;2023-04-25T09:08:56;6.78;;;3.47;;
53903;SDS011;39812;52.430;16.936;2023-04-25T09:11:27;5.63;;;3.47;;
53903;SDS011;39812;52.430;16.936;2023-04-25T09:14:09;6.35;;;4.07;;
53903;SDS011;39812;52.430;16.936;2023-04-25T09:19:30;8.38;;;3.92;;
53903;SDS011;39812;52.430;16.936;2023-04-25T09:21:58;6.28;;;3.55;;
53903;SDS011;39812;52.430;16.936;2023-04-25T09:24:32;4.80;;;3.42;;
53903;SDS011;39812;52.430;16.936;2023-04-25T09:26:59;6.13;;;3.00;;
53903;SDS011;39812;52.430;16.936;2023-04-25T09:29:32;8.38;;;3.63;;
53903;SDS011;39812;52.430;16.936;2023-04-25T09:34:48;7.95;;;3.10;;
53903;SDS011;39812;52.430;16.936;2023-04-25T09:39:49;6.40;;;3.17;;
53903;SDS011;39812;52.430;16.936;2023-04-25T09:42:21;4.72;;;2.97;;
53903;SDS011;39812;52.430;16.936;2023-04-25T09:44:51;4.50;;;3.00;;
53903;SDS011;39812;52.430;16.936;2023-04-25T09:47:18;4.75;;;3.03;;
53903;SDS011;39812;52.430;16.936;2023-04-25T09:49:46;7.15;;;3.25;;
53903;SDS011;39812;52.430;16.936;2023-04-25T09:52:18;7.70;;;3.63;;
53903;SDS011;39812;52.430;16.936;2023-04-25T09:54:48;5.50;;;3.15;;
53903;SDS011;39812;52.430;16.936;2023-04-25T09:57:15;8.20;;;3.85;;
53903;SDS011;39812;52.430;16.936;2023-04-25T09:59:48;6.03;;;3.58;;
53903;SDS011;39812;52.430;16.936;2023-04-25T10:02:16;4.10;;;3.43;;
53903;SDS011;39812;52.430;16.936;2023-04-25T10:04:44;6.10;;;3.15;;
53903;SDS011;39812;52.430;16.936;2023-04-25T10:07:13;6.32;;;3.45;;
53903;SDS011;39812;52.430;16.936;2023-04-25T10:09:40;7.00;;;3.67;;
53903;SDS011;39812;52.430;16.936;2023-04-25T10:12:07;5.72;;;3.15;;
53903;SDS011;39812;52.430;16.936;2023-04-25T10:14:33;3.97;;;2.97;;
53903;SDS011;39812;52.430;16.936;2023-04-25T10:16:59;5.55;;;3.20;;
53903;SDS011;39812;52.430;16.936;2023-04-25T10:19:26;5.25;;;3.05;;
53903;SDS011;39812;52.430;16.936;2023-04-25T10:21:55;5.57;;;2.40;;
53903;SDS011;39812;52.430;16.936;2023-04-25T10:24:33;5.68;;;2.58;;
53903;SDS011;39812;52.430;16.936;2023-04-25T10:27:01;5.13;;;3.28;;
53903;SDS011;39812;52.430;16.936;2023-04-25T10:29:27;5.38;;;2.63;;
53903;SDS011;39812;52.430;16.936;2023-04-25T10:31:52;5.60;;;2.90;;
53903;SDS011;39812;52.430;16.936;2023-04-25T10:34:19;5.25;;;3.20;;
53903;SDS011;39812;52.430;16.936;2023-04-25T10:36:49;3.95;;;2.85;;
53903;SDS011;39812;52.430;16.936;2023-04-25T10:39:23;9.15;;;3.67;;
53903;SDS011;39812;52.430;16.936;2023-04-25T10:41:58;5.70;;;3.28;;
53903;SDS011;39812;52.430;16.936;2023-04-25T10:44:27;3.90;;;2.90;;
53903;SDS011;39812;52.430;16.936;2023-04-25T10:46:57;4.00;;;2.58;;
53903;SDS011;39812;52.430;16.936;2023-04-25T10:49:30;4.15;;;2.85;;
53903;SDS011;39812;52.430;16.936;2023-04-25T10:55:05;3.65;;;2.63;;
53903;SDS011;39812;52.430;16.936;2023-04-25T10:57:39;5.50;;;2.80;;
53903;SDS011;39812;52.430;16.936;2023-04-25T11:00:15;5.15;;;2.83;;
53903;SDS011;39812;52.430;16.936;2023-04-25T11:05:23;6.75;;;2.85;;
53903;SDS011;39812;52.430;16.936;2023-04-25T11:07:58;4.70;;;3.17;;
53903;SDS011;39812;52.430;16.936;2023-04-25T11:10:27;6.03;;;2.95;;
53903;SDS011;39812;52.430;16.936;2023-04-25T11:12:55;4.97;;;2.53;;
53903;SDS011;39812;52.430;16.936;2023-04-25T11:15:22;5.10;;;2.67;;
53903;SDS011;39812;52.430;16.936;2023-04-25T11:17:48;4.55;;;2.33;;
53903;SDS011;39812;52.430;16.936;2023-04-25T11:20:16;5.03;;;2.55;;
53903;SDS011;39812;52.430;16.936;2023-04-25T11:22:41;7.90;;;2.60;;
53903;SDS011;39812;52.430;16.936;2023-04-25T11:25:10;3.45;;;2.15;;
53903;SDS011;39812;52.430;16.936;2023-04-25T11:27:37;3.67;;;2.17;;
53903;SDS011;39812;52.430;16.936;2023-04-25T11:30:14;3.08;;;2.22;;
53903;SDS011;39812;52.430;16.936;2023-04-25T11:32:41;3.60;;;2.10;;
53903;SDS011;39812;52.430;16.936;2023-04-25T11:35:08;4.80;;;2.00;;
53903;SDS011;39812;52.430;16.936;2023-04-25T11:37:34;3.22;;;2.70;;
53903;SDS011;39812;52.430;16.936;2023-04-25T11:40:00;4.65;;;2.60;;
53903;SDS011;39812;52.430;16.936;2023-04-25T11:42:27;6.18;;;2.67;;
53903;SDS011;39812;52.430;16.936;2023-04-25T11:44:52;3.35;;;2.65;;
53903;SDS011;39812;52.430;16.936;2023-04-25T11:47:18;5.22;;;2.67;;
53903;SDS011;39812;52.430;16.936;2023-04-25T11:49:43;3.45;;;2.55;;
53903;SDS011;39812;52.430;16.936;2023-04-25T11:52:09;7.22;;;2.35;;
53903;SDS011;39812;52.430;16.936;2023-04-25T11:54:35;5.78;;;2.55;;
53903;SDS011;39812;52.430;16.936;2023-04-25T11:57:02;9.57;;;3.25;;
53903;SDS011;39812;52.430;16.936;2023-04-25T11:59:28;4.63;;;2.67;;
53903;SDS011;39812;52.430;16.936;2023-04-25T12:01:53;6.15;;;2.25;;
53903;SDS011;39812;52.430;16.936;2023-04-25T12:04:22;4.55;;;2.75;;
53903;SDS011;39812;52.430;16.936;2023-04-25T12:06:53;8.82;;;2.75;;
53903;SDS011;39812;52.430;16.936;2023-04-25T12:09:32;3.13;;;2.40;;
53903;SDS011;39812;52.430;16.936;2023-04-25T12:11:59;3.42;;;2.60;;
53903;SDS011;39812;52.430;16.936;2023-04-25T12:14:31;3.75;;;2.55;;
53903;SDS011;39812;52.430;16.936;2023-04-25T12:16:59;7.43;;;2.42;;
53903;SDS011;39812;52.430;16.936;2023-04-25T12:19:25;3.65;;;2.35;;
53903;SDS011;39812;52.430;16.936;2023-04-25T12:21:56;6.43;;;2.78;;
53903;SDS011;39812;52.430;16.936;2023-04-25T12:24:22;6.63;;;2.50;;
53903;SDS011;39812;52.430;16.936;2023-04-25T12:26:58;3.10;;;2.15;;
53903;SDS011;39812;52.430;16.936;2023-04-25T12:29:26;4.18;;;2.35;;
53903;SDS011;39812;52.430;16.936;2023-04-25T12:31:53;3.70;;;2.40;;
53903;SDS011;39812;52.430;16.936;2023-04-25T12:34:20;3.85;;;2.20;;
53903;SDS011;39812;52.430;16.936;2023-04-25T12:36:47;3.97;;;2.50;;
53903;SDS011;39812;52.430;16.936;2023-04-25T12:39:20;4.63;;;2.58;;
53903;SDS011;39812;52.430;16.936;2023-04-25T12:41:49;4.93;;;2.30;;
53903;SDS011;39812;52.430;16.936;2023-04-25T12:44:17;4.70;;;2.10;;
53903;SDS011;39812;52.430;16.936;2023-04-25T12:46:43;5.40;;;2.40;;
53903;SDS011;39812;52.430;16.936;2023-04-25T12:49:08;7.50;;;2.83;;
53903;SDS011;39812;52.430;16.936;2023-04-25T12:51:34;4.90;;;2.58;;
53903;SDS011;39812;52.430;16.936;2023-04-25T12:54:01;7.95;;;3.03;;
53903;SDS011;39812;52.430;16.936;2023-04-25T12:56:27;7.13;;;2.50;;
53903;SDS011;39812;52.430;16.936;2023-04-25T12:58:53;3.10;;;2.10;;
53903;SDS011;39812;52.430;16.936;2023-04-25T13:01:20;4.15;;;1.95;;
53903;SDS011;39812;52.430;16.936;2023-04-25T13:03:46;4.25;;;2.10;;
53903;SDS011;39812;52.430;16.936;2023-04-25T13:06:13;4.00;;;2.03;;
53903;SDS011;39812;52.430;16.936;2023-04-25T13:08:39;6.20;;;2.17;;
53903;SDS011;39812;52.430;16.936;2023-04-25T13:11:06;4.15;;;2.03;;
53903;SDS011;39812;52.430;16.936;2023-04-25T13:13:32;5.30;;;2.05;;
53903;SDS011;39812;52.430;16.936;2023-04-25T13:15:59;4.13;;;1.92;;
53903;SDS011;39812;52.430;16.936;2023-04-25T13:18:25;3.50;;;1.75;;
53903;SDS011;39812;52.430;16.936;2023-04-25T13:20:54;3.78;;;1.77;;
53903;SDS011;39812;52.430;16.936;2023-04-25T13:23:20;2.33;;;1.42;;
53903;SDS011;39812;52.430;16.936;2023-04-25T13:25:46;1.85;;;1.33;;
53903;SDS011;39812;52.430;16.936;2023-04-25T13:28:12;2.05;;;1.27;;
53903;SDS011;39812;52.430;16.936;2023-04-25T13:30:38;1.77;;;1.30;;
53903;SDS011;39812;52.430;16.936;2023-04-25T13:33:04;2.28;;;1.45;;
53903;SDS011;39812;52.430;16.936;2023-04-25T13:35:31;1.88;;;1.00;;
53903;SDS011;39812;52.430;16.936;2023-04-25T13:37:59;1.98;;;1.10;;
53903;SDS011;39812;52.430;16.936;2023-04-25T13:40:25;2.42;;;1.58;;
53903;SDS011;39812;52.430;16.936;2023-04-25T13:42:51;2.35;;;1.08;;
53903;SDS011;39812;52.430;16.936;2023-04-25T13:45:17;4.63;;;1.63;;
53903;SDS011;39812;52.430;16.936;2023-04-25T13:47:43;5.15;;;1.33;;
53903;SDS011;39812;52.430;16.936;2023-04-25T13:50:09;7.93;;;1.70;;
53903;SDS011;39812;52.430;16.936;2023-04-25T13:52:35;4.10;;;1.75;;
53903;SDS011;39812;52.430;16.936;2023-04-25T13:55:01;3.25;;;1.88;;
53903;SDS011;39812;52.430;16.936;2023-04-25T13:57:28;3.22;;;1.60;;
53903;SDS011;39812;52.430;16.936;2023-04-25T13:59:57;2.60;;;1.75;;
53903;SDS011;39812;52.430;16.936;2023-04-25T14:02:24;4.03;;;2.10;;
53903;SDS011;39812;52.430;16.936;2023-04-25T14:04:50;3.30;;;2.03;;
53903;SDS011;39812;52.430;16.936;2023-04-25T14:07:15;4.72;;;2.13;;
53903;SDS011;39812;52.430;16.936;2023-04-25T14:09:41;3.72;;;2.60;;
53903;SDS011;39812;52.430;16.936;2023-04-25T14:12:07;5.45;;;2.22;;
53903;SDS011;39812;52.430;16.936;2023-04-25T14:14:32;6.10;;;2.78;;
53903;SDS011;39812;52.430;16.936;2023-04-25T14:16:58;4.20;;;2.50;;
53903;SDS011;39812;52.430;16.936;2023-04-25T14:19:24;3.33;;;2.35;;
53903;SDS011;39812;52.430;16.936;2023-04-25T14:21:49;3.65;;;2.00;;
53903;SDS011;39812;52.430;16.936;2023-04-25T14:24:15;4.15;;;2.00;;
53903;SDS011;39812;52.430;16.936;2023-04-25T14:26:41;4.75;;;2.22;;
53903;SDS011;39812;52.430;16.936;2023-04-25T14:29:10;4.72;;;1.38;;
53903;SDS011;39812;52.430;16.936;2023-04-25T14:31:39;2.58;;;1.50;;
53903;SDS011;39812;52.430;16.936;2023-04-25T14:34:05;3.88;;;1.73;;
53903;SDS011;39812;52.430;16.936;2023-04-25T14:36:31;3.60;;;1.65;;
53903;SDS011;39812;52.430;16.936;2023-04-25T14:38:58;2.58;;;1.65;;
53903;SDS011;39812;52.430;16.936;2023-04-25T14:41:24;3.22;;;1.67;;
53903;SDS011;39812;52.430;16.936;2023-04-25T14:43:51;3.25;;;2.08;;